sensor_id;sensor_type;location;lat;lon;timestamp;pressure;altitude;pressure_sealevel;temperature;humidity
75497;BME280;64074;47.540;19.072;2024-03-25T00:02:44;99617.88;;;6.16;68.19
75497;BME280;64074;47.540;19.072;2024-03-25T00:05:57;99622.69;;;6.20;67.99
75497;BME280;64074;47.540;19.072;2024-03-25T00:09:26;99621.34;;;6.22;67.69
75497;BME280;64074;47.540;19.072;2024-03-25T00:12:42;99618.75;;;6.12;67.78
75497;BME280;64074;47.540;19.072;2024-03-25T00:16:07;99614.63;;;6.20;67.53
75497;BME280;64074;47.540;19.072;2024-03-25T00:19:15;99617.59;;;6.18;67.93
75497;BME280;64074;47.540;19.072;2024-03-25T00:22:46;99613.28;;;6.22;67.55
75497;BME280;64074;47.540;19.072;2024-03-25T00:26:13;99613.81;;;6.19;67.73
75497;BME280;64074;47.540;19.072;2024-03-25T00:29:32;99616.00;;;6.17;67.54
75497;BME280;64074;47.540;19.072;2024-03-25T00:32:55;99613.03;;;6.18;67.28
75497;BME280;64074;47.540;19.072;2024-03-25T00:36:16;99615.97;;;6.22;67.90
75497;BME280;64074;47.540;19.072;2024-03-25T00:39:20;99613.88;;;6.14;67.57
75497;BME280;64074;47.540;19.072;2024-03-25T00:42:30;99605.84;;;6.09;67.83
75497;BME280;64074;47.540;19.072;2024-03-25T00:45:47;99605.22;;;6.17;67.35
75497;BME280;64074;47.540;19.072;2024-03-25T00:48:57;99599.34;;;6.15;67.83
75497;BME280;64074;47.540;19.072;2024-03-25T00:52:21;99601.28;;;6.09;67.81
75497;BME280;64074;47.540;19.072;2024-03-25T00:55:37;99596.75;;;6.05;68.10
75497;BME280;64074;47.540;19.072;2024-03-25T00:58:55;99597.56;;;6.05;67.86
75497;BME280;64074;47.540;19.072;2024-03-25T01:02:17;99610.03;;;5.96;68.94
75497;BME280;64074;47.540;19.072;2024-03-25T01:05:40;99605.72;;;5.95;68.99
75497;BME280;64074;47.540;19.072;2024-03-25T01:08:56;99606.53;;;5.96;69.19
75497;BME280;64074;47.540;19.072;2024-03-25T01:12:31;99606.25;;;5.97;70.84
75497;BME280;64074;47.540;19.072;2024-03-25T01:15:53;99603.13;;;5.80;70.19
75497;BME280;64074;47.540;19.072;2024-03-25T01:18:56;99602.84;;;5.81;70.53
75497;BME280;64074;47.540;19.072;2024-03-25T01:22:01;99605.56;;;5.76;70.17
75497;BME280;64074;47.540;19.072;2024-03-25T01:25:13;99600.47;;;5.75;70.73
75497;BME280;64074;47.540;19.072;2024-03-25T01:28:35;99603.19;;;5.70;71.07
75497;BME280;64074;47.540;19.072;2024-03-25T01:31:55;99603.00;;;5.61;71.04
75497;BME280;64074;47.540;19.072;2024-03-25T01:35:16;99593.59;;;5.59;70.53
75497;BME280;64074;47.540;19.072;2024-03-25T01:38:35;99597.28;;;5.68;70.46
75497;BME280;64074;47.540;19.072;2024-03-25T01:41:55;99595.28;;;5.49;70.29
75497;BME280;64074;47.540;19.072;2024-03-25T01:45:14;99598.09;;;5.68;70.42
75497;BME280;64074;47.540;19.072;2024-03-25T01:48:40;99592.38;;;5.46;70.78
75497;BME280;64074;47.540;19.072;2024-03-25T01:52:06;99580.25;;;5.43;70.50
75497;BME280;64074;47.540;19.072;2024-03-25T01:55:21;99583.91;;;5.23;71.00
75497;BME280;64074;47.540;19.072;2024-03-25T01:58:50;99583.56;;;5.35;71.35
75497;BME280;64074;47.540;19.072;2024-03-25T02:01:53;99582.81;;;5.24;71.32
75497;BME280;64074;47.540;19.072;2024-03-25T02:05:01;99589.31;;;5.13;71.51
75497;BME280;64074;47.540;19.072;2024-03-25T02:08:11;99581.84;;;5.05;72.18
75497;BME280;64074;47.540;19.072;2024-03-25T02:11:26;99583.53;;;4.91;72.04
75497;BME280;64074;47.540;19.072;2024-03-25T02:14:49;99583.44;;;5.11;71.44
75497;BME280;64074;47.540;19.072;2024-03-25T02:18:00;99588.22;;;5.19;71.25
75497;BME280;64074;47.540;19.072;2024-03-25T02:21:40;99571.63;;;5.07;71.55
75497;BME280;64074;47.540;19.072;2024-03-25T02:24:45;99585.00;;;5.22;70.88
75497;BME280;64074;47.540;19.072;2024-03-25T02:27:54;99586.47;;;5.39;70.88
75497;BME280;64074;47.540;19.072;2024-03-25T02:31:17;99583.56;;;5.35;70.32
75497;BME280;64074;47.540;19.072;2024-03-25T02:34:33;99587.81;;;5.41;70.66
75497;BME280;64074;47.540;19.072;2024-03-25T02:37:51;99586.84;;;5.61;70.34
75497;BME280;64074;47.540;19.072;2024-03-25T02:40:57;99585.88;;;5.52;70.19
75497;BME280;64074;47.540;19.072;2024-03-25T02:44:04;99592.72;;;5.29;70.86
75497;BME280;64074;47.540;19.072;2024-03-25T02:47:13;99588.94;;;5.35;70.12
75497;BME280;64074;47.540;19.072;2024-03-25T02:50:33;99586.19;;;5.40;70.04
75497;BME280;64074;47.540;19.072;2024-03-25T02:53:54;99587.53;;;5.43;69.88
75497;BME280;64074;47.540;19.072;2024-03-25T02:57:15;99592.88;;;5.48;70.06
75497;BME280;64074;47.540;19.072;2024-03-25T03:00:32;99591.28;;;5.47;69.48
75497;BME280;64074;47.540;19.072;2024-03-25T03:03:40;99599.63;;;5.45;70.04
75497;BME280;64074;47.540;19.072;2024-03-25T03:06:47;99603.28;;;5.60;69.80
75497;BME280;64074;47.540;19.072;2024-03-25T03:09:56;99603.22;;;5.65;69.31
75497;BME280;64074;47.540;19.072;2024-03-25T03:13:18;99604.53;;;5.72;69.15
75497;BME280;64074;47.540;19.072;2024-03-25T03:16:40;99601.88;;;5.67;69.30
75497;BME280;64074;47.540;19.072;2024-03-25T03:20:02;99616.63;;;5.75;69.66
75497;BME280;64074;47.540;19.072;2024-03-25T03:23:24;99613.94;;;5.75;69.24
75497;BME280;64074;47.540;19.072;2024-03-25T03:26:56;99617.88;;;5.82;69.06
75497;BME280;64074;47.540;19.072;2024-03-25T03:29:58;99621.81;;;6.00;68.52
75497;BME280;64074;47.540;19.072;2024-03-25T03:33:20;99621.72;;;6.10;68.00
75497;BME280;64074;47.540;19.072;2024-03-25T03:36:42;99611.63;;;6.26;67.12
75497;BME280;64074;47.540;19.072;2024-03-25T03:40:04;99616.44;;;6.29;66.74
75497;BME280;64074;47.540;19.072;2024-03-25T03:43:26;99623.81;;;6.42;66.62
75497;BME280;64074;47.540;19.072;2024-03-25T03:46:53;99623.28;;;6.45;66.51
75497;BME280;64074;47.540;19.072;2024-03-25T03:50:03;99625.09;;;6.50;66.28
75497;BME280;64074;47.540;19.072;2024-03-25T03:53:34;99625.41;;;6.48;65.16
75497;BME280;64074;47.540;19.072;2024-03-25T03:56:54;99628.53;;;6.56;65.99
75497;BME280;64074;47.540;19.072;2024-03-25T04:00:21;99635.47;;;6.62;66.46
75497;BME280;64074;47.540;19.072;2024-03-25T04:03:44;99625.41;;;6.72;65.57
75497;BME280;64074;47.540;19.072;2024-03-25T04:07:02;99633.78;;;6.71;65.67
75497;BME280;64074;47.540;19.072;2024-03-25T04:10:17;99622.50;;;6.88;65.39
75497;BME280;64074;47.540;19.072;2024-03-25T04:13:33;99636.56;;;6.85;65.05
75497;BME280;64074;47.540;19.072;2024-03-25T04:17:08;99644.75;;;6.98;64.48
75497;BME280;64074;47.540;19.072;2024-03-25T04:20:38;99636.81;;;7.07;64.64
75497;BME280;64074;47.540;19.072;2024-03-25T04:23:52;99649.66;;;7.15;64.63
75497;BME280;64074;47.540;19.072;2024-03-25T04:27:12;99652.63;;;7.14;64.44
75497;BME280;64074;47.540;19.072;2024-03-25T04:30:32;99651.63;;;7.09;63.25
75497;BME280;64074;47.540;19.072;2024-03-25T04:33:56;99656.78;;;7.06;63.44
75497;BME280;64074;47.540;19.072;2024-03-25T04:37:16;99656.75;;;7.30;63.84
75497;BME280;64074;47.540;19.072;2024-03-25T04:40:45;99652.09;;;7.35;63.40
75497;BME280;64074;47.540;19.072;2024-03-25T04:44:00;99659.81;;;7.42;63.51
75497;BME280;64074;47.540;19.072;2024-03-25T04:47:26;99662.00;;;7.40;63.40
75497;BME280;64074;47.540;19.072;2024-03-25T04:50:43;99660.38;;;7.39;62.85
75497;BME280;64074;47.540;19.072;2024-03-25T04:53:52;99674.34;;;7.46;62.96
75497;BME280;64074;47.540;19.072;2024-03-25T04:57:09;99672.50;;;7.41;63.00
75497;BME280;64074;47.540;19.072;2024-03-25T05:00:38;99667.09;;;7.23;63.36
75497;BME280;64074;47.540;19.072;2024-03-25T05:04:12;99674.66;;;7.39;63.27
75497;BME280;64074;47.540;19.072;2024-03-25T05:07:36;99678.16;;;7.40;62.91
75497;BME280;64074;47.540;19.072;2024-03-25T05:10:46;99681.84;;;7.49;62.60
75497;BME280;64074;47.540;19.072;2024-03-25T05:14:19;99678.75;;;7.37;62.65
75497;BME280;64074;47.540;19.072;2024-03-25T05:17:39;99678.16;;;7.40;62.62
75497;BME280;64074;47.540;19.072;2024-03-25T05:20:59;99690.56;;;7.41;62.35
75497;BME280;64074;47.540;19.072;2024-03-25T05:24:20;99690.84;;;7.39;62.89
75497;BME280;64074;47.540;19.072;2024-03-25T05:27:29;99696.03;;;7.36;62.84
75497;BME280;64074;47.540;19.072;2024-03-25T05:30:31;99698.63;;;7.46;63.11
75497;BME280;64074;47.540;19.072;2024-03-25T05:33:40;99703.41;;;7.49;62.91
75497;BME280;64074;47.540;19.072;2024-03-25T05:37:18;99713.69;;;7.47;62.95
75497;BME280;64074;47.540;19.072;2024-03-25T05:40:45;99712.06;;;7.03;64.29
75497;BME280;64074;47.540;19.072;2024-03-25T05:43:55;99715.63;;;7.23;63.86
75497;BME280;64074;47.540;19.072;2024-03-25T05:47:15;99721.59;;;6.96;65.61
75497;BME280;64074;47.540;19.072;2024-03-25T05:50:29;99728.25;;;7.03;65.59
75497;BME280;64074;47.540;19.072;2024-03-25T05:53:56;99724.09;;;7.11;65.97
75497;BME280;64074;47.540;19.072;2024-03-25T05:57:22;99727.09;;;7.09;67.01
75497;BME280;64074;47.540;19.072;2024-03-25T06:00:33;99716.53;;;7.13;67.40
75497;BME280;64074;47.540;19.072;2024-03-25T06:03:36;99718.59;;;7.21;67.20
75497;BME280;64074;47.540;19.072;2024-03-25T06:06:43;99715.72;;;7.36;66.88
75497;BME280;64074;47.540;19.072;2024-03-25T06:09:49;99728.81;;;7.00;67.86
75497;BME280;64074;47.540;19.072;2024-03-25T06:12:57;99722.03;;;7.27;67.22
75497;BME280;64074;47.540;19.072;2024-03-25T06:16:13;99728.88;;;7.19;67.64
75497;BME280;64074;47.540;19.072;2024-03-25T06:19:35;99725.81;;;7.50;67.37
75497;BME280;64074;47.540;19.072;2024-03-25T06:22:39;99727.22;;;7.23;67.63
75497;BME280;64074;47.540;19.072;2024-03-25T06:25:44;99732.25;;;7.30;67.97
75497;BME280;64074;47.540;19.072;2024-03-25T06:28:54;99725.69;;;7.36;67.90
75497;BME280;64074;47.540;19.072;2024-03-25T06:32:09;99729.66;;;7.62;67.01
75497;BME280;64074;47.540;19.072;2024-03-25T06:35:37;99725.97;;;7.77;66.63
75497;BME280;64074;47.540;19.072;2024-03-25T06:38:43;99731.34;;;7.58;66.25
75497;BME280;64074;47.540;19.072;2024-03-25T06:41:54;99736.25;;;7.94;65.58
75497;BME280;64074;47.540;19.072;2024-03-25T06:45:04;99741.56;;;7.99;64.48
75497;BME280;64074;47.540;19.072;2024-03-25T06:48:11;99731.69;;;8.46;62.91
75497;BME280;64074;47.540;19.072;2024-03-25T06:51:16;99737.16;;;8.73;62.10
75497;BME280;64074;47.540;19.072;2024-03-25T06:54:27;99737.00;;;8.51;62.34
75497;BME280;64074;47.540;19.072;2024-03-25T06:58:02;99741.31;;;8.52;62.31
75497;BME280;64074;47.540;19.072;2024-03-25T07:01:32;99748.34;;;8.67;62.33
75497;BME280;64074;47.540;19.072;2024-03-25T07:04:36;99762.09;;;8.84;61.39
75497;BME280;64074;47.540;19.072;2024-03-25T07:07:45;99759.50;;;8.79;62.22
75497;BME280;64074;47.540;19.072;2024-03-25T07:10:56;99754.19;;;8.74;64.33
75497;BME280;64074;47.540;19.072;2024-03-25T07:14:05;99754.59;;;8.81;63.21
75497;BME280;64074;47.540;19.072;2024-03-25T07:17:15;99758.09;;;8.81;63.05
75497;BME280;64074;47.540;19.072;2024-03-25T07:20:31;99757.81;;;8.97;61.88
75497;BME280;64074;47.540;19.072;2024-03-25T07:23:38;99758.59;;;8.83;60.35
75497;BME280;64074;47.540;19.072;2024-03-25T07:26:43;99748.72;;;9.20;60.43
75497;BME280;64074;47.540;19.072;2024-03-25T07:29:48;99754.50;;;9.68;59.62
75497;BME280;64074;47.540;19.072;2024-03-25T07:32:56;99752.84;;;9.95;58.30
75497;BME280;64074;47.540;19.072;2024-03-25T07:36:05;99750.38;;;9.71;58.28
75497;BME280;64074;47.540;19.072;2024-03-25T07:39:27;99755.72;;;9.35;58.64
75497;BME280;64074;47.540;19.072;2024-03-25T07:42:33;99778.28;;;9.30;57.98
75497;BME280;64074;47.540;19.072;2024-03-25T07:45:41;99772.53;;;9.04;58.72
75497;BME280;64074;47.540;19.072;2024-03-25T07:48:50;99767.84;;;8.96;57.71
75497;BME280;64074;47.540;19.072;2024-03-25T07:52:04;99763.34;;;9.33;57.39
75497;BME280;64074;47.540;19.072;2024-03-25T07:55:19;99764.53;;;9.54;56.52
75497;BME280;64074;47.540;19.072;2024-03-25T07:58:47;99759.22;;;9.63;56.87
75497;BME280;64074;47.540;19.072;2024-03-25T08:01:56;99769.22;;;9.62;56.51
75497;BME280;64074;47.540;19.072;2024-03-25T08:05:01;99772.13;;;9.66;56.75
75497;BME280;64074;47.540;19.072;2024-03-25T08:08:04;99768.00;;;9.82;56.51
75497;BME280;64074;47.540;19.072;2024-03-25T08:11:14;99776.78;;;9.51;55.54
75497;BME280;64074;47.540;19.072;2024-03-25T08:14:26;99772.41;;;9.92;55.34
75497;BME280;64074;47.540;19.072;2024-03-25T08:17:30;99773.91;;;9.98;55.59
75497;BME280;64074;47.540;19.072;2024-03-25T08:20:40;99778.50;;;9.97;55.13
75497;BME280;64074;47.540;19.072;2024-03-25T08:23:55;99766.25;;;10.00;55.22
75497;BME280;64074;47.540;19.072;2024-03-25T08:27:13;99780.44;;;9.83;55.13
75497;BME280;64074;47.540;19.072;2024-03-25T08:30:46;99764.00;;;9.79;55.09
75497;BME280;64074;47.540;19.072;2024-03-25T08:33:51;99767.63;;;10.11;54.99
75497;BME280;64074;47.540;19.072;2024-03-25T08:36:58;99768.56;;;10.42;54.23
75497;BME280;64074;47.540;19.072;2024-03-25T08:40:08;99771.13;;;10.25;53.39
75497;BME280;64074;47.540;19.072;2024-03-25T08:43:17;99765.84;;;10.42;53.31
75497;BME280;64074;47.540;19.072;2024-03-25T08:46:28;99766.75;;;10.02;53.03
75497;BME280;64074;47.540;19.072;2024-03-25T08:49:57;99762.84;;;10.44;52.68
75497;BME280;64074;47.540;19.072;2024-03-25T08:53:09;99764.13;;;10.10;52.65
75497;BME280;64074;47.540;19.072;2024-03-25T08:56:25;99760.34;;;10.34;52.66
75497;BME280;64074;47.540;19.072;2024-03-25T08:59:31;99766.56;;;10.34;52.94
75497;BME280;64074;47.540;19.072;2024-03-25T09:02:41;99765.34;;;10.04;53.94
75497;BME280;64074;47.540;19.072;2024-03-25T09:05:58;99769.72;;;10.50;52.88
75497;BME280;64074;47.540;19.072;2024-03-25T09:09:05;99763.09;;;10.20;51.56
75497;BME280;64074;47.540;19.072;2024-03-25T09:12:33;99770.81;;;10.49;52.10
75497;BME280;64074;47.540;19.072;2024-03-25T09:16:05;99755.81;;;10.43;52.34
75497;BME280;64074;47.540;19.072;2024-03-25T09:19:18;99747.66;;;10.96;50.68
75497;BME280;64074;47.540;19.072;2024-03-25T09:22:21;99747.69;;;11.05;49.35
75497;BME280;64074;47.540;19.072;2024-03-25T09:25:30;99754.09;;;10.78;50.05
75497;BME280;64074;47.540;19.072;2024-03-25T09:28:39;99753.47;;;10.50;50.70
75497;BME280;64074;47.540;19.072;2024-03-25T09:31:42;99759.41;;;10.38;52.86
75497;BME280;64074;47.540;19.072;2024-03-25T09:34:53;99767.25;;;10.40;54.21
75497;BME280;64074;47.540;19.072;2024-03-25T09:38:08;99763.38;;;10.32;54.09
75497;BME280;64074;47.540;19.072;2024-03-25T09:41:17;99763.69;;;10.31;52.20
75497;BME280;64074;47.540;19.072;2024-03-25T09:50:14;99751.31;;;10.92;50.45
75497;BME280;64074;47.540;19.072;2024-03-25T09:53:30;99749.25;;;10.97;49.28
75497;BME280;64074;47.540;19.072;2024-03-25T09:56:49;99761.63;;;10.59;48.90
75497;BME280;64074;47.540;19.072;2024-03-25T10:00:00;99754.94;;;10.56;49.52
75497;BME280;64074;47.540;19.072;2024-03-25T10:03:22;99758.13;;;10.58;48.64
75497;BME280;64074;47.540;19.072;2024-03-25T10:06:32;99761.53;;;10.95;48.38
75497;BME280;64074;47.540;19.072;2024-03-25T10:09:46;99760.56;;;11.30;48.20
75497;BME280;64074;47.540;19.072;2024-03-25T10:12:55;99754.34;;;11.38;46.93
75497;BME280;64074;47.540;19.072;2024-03-25T10:16:02;99751.69;;;11.56;45.31
75497;BME280;64074;47.540;19.072;2024-03-25T10:19:12;99746.13;;;11.61;46.30
75497;BME280;64074;47.540;19.072;2024-03-25T10:22:45;99744.75;;;11.81;45.60
75497;BME280;64074;47.540;19.072;2024-03-25T10:26:10;99740.28;;;11.85;44.10
75497;BME280;64074;47.540;19.072;2024-03-25T10:29:35;99738.06;;;11.95;44.39
75497;BME280;64074;47.540;19.072;2024-03-25T10:33:02;99753.34;;;11.74;43.81
75497;BME280;64074;47.540;19.072;2024-03-25T10:36:44;99734.00;;;11.76;43.75
75497;BME280;64074;47.540;19.072;2024-03-25T10:40:01;99732.75;;;11.82;44.39
75497;BME280;64074;47.540;19.072;2024-03-25T10:43:16;99744.56;;;11.77;43.89
75497;BME280;64074;47.540;19.072;2024-03-25T10:46:34;99735.78;;;11.89;44.79
75497;BME280;64074;47.540;19.072;2024-03-25T10:49:50;99743.00;;;12.02;43.98
75497;BME280;64074;47.540;19.072;2024-03-25T10:53:12;99736.53;;;11.63;45.90
75497;BME280;64074;47.540;19.072;2024-03-25T10:56:42;99735.00;;;12.06;44.83
75497;BME280;64074;47.540;19.072;2024-03-25T10:59:52;99736.44;;;12.29;45.33
75497;BME280;64074;47.540;19.072;2024-03-25T11:03:29;99743.16;;;12.14;43.63
75497;BME280;64074;47.540;19.072;2024-03-25T11:06:44;99731.19;;;12.24;43.07
75497;BME280;64074;47.540;19.072;2024-03-25T11:10:06;99735.03;;;11.97;43.68
75497;BME280;64074;47.540;19.072;2024-03-25T11:13:21;99740.50;;;11.00;50.04
75497;BME280;64074;47.540;19.072;2024-03-25T11:16:32;99768.53;;;10.06;50.96
75497;BME280;64074;47.540;19.072;2024-03-25T11:20:12;99785.09;;;9.69;57.80
75497;BME280;64074;47.540;19.072;2024-03-25T11:23:46;99759.94;;;9.91;57.99
75497;BME280;64074;47.540;19.072;2024-03-25T11:27:05;99740.84;;;9.73;59.60
75497;BME280;64074;47.540;19.072;2024-03-25T11:30:30;99738.00;;;9.92;57.85
75497;BME280;64074;47.540;19.072;2024-03-25T11:33:44;99737.91;;;10.64;56.76
75497;BME280;64074;47.540;19.072;2024-03-25T11:37:07;99755.50;;;10.98;55.73
75497;BME280;64074;47.540;19.072;2024-03-25T11:40:20;99758.69;;;11.00;53.01
75497;BME280;64074;47.540;19.072;2024-03-25T11:43:35;99746.38;;;10.94;52.43
75497;BME280;64074;47.540;19.072;2024-03-25T11:46:55;99746.03;;;10.64;51.34
75497;BME280;64074;47.540;19.072;2024-03-25T11:50:08;99755.03;;;10.73;49.99
75497;BME280;64074;47.540;19.072;2024-03-25T11:53:13;99750.38;;;10.96;48.37
75497;BME280;64074;47.540;19.072;2024-03-25T11:56:24;99750.63;;;11.65;48.10
75497;BME280;64074;47.540;19.072;2024-03-25T11:59:35;99750.47;;;11.70;46.68
75497;BME280;64074;47.540;19.072;2024-03-25T12:02:45;99729.03;;;12.73;43.86
75497;BME280;64074;47.540;19.072;2024-03-25T12:06:01;99764.50;;;12.93;44.27
75497;BME280;64074;47.540;19.072;2024-03-25T12:10:35;99733.09;;;12.32;45.20
75497;BME280;64074;47.540;19.072;2024-03-25T12:13:57;99739.66;;;12.22;45.91
75497;BME280;64074;47.540;19.072;2024-03-25T12:17:06;99756.16;;;11.60;48.92
75497;BME280;64074;47.540;19.072;2024-03-25T12:20:15;99769.16;;;11.24;50.41
75497;BME280;64074;47.540;19.072;2024-03-25T12:23:31;99785.91;;;11.17;52.03
75497;BME280;64074;47.540;19.072;2024-03-25T12:26:47;99780.03;;;11.24;52.29
75497;BME280;64074;47.540;19.072;2024-03-25T12:30:00;99781.00;;;11.28;51.93
75497;BME280;64074;47.540;19.072;2024-03-25T12:33:18;99777.38;;;12.32;49.35
75497;BME280;64074;47.540;19.072;2024-03-25T12:36:35;99756.25;;;13.78;46.27
75497;BME280;64074;47.540;19.072;2024-03-25T12:39:59;99763.84;;;14.89;42.95
75497;BME280;64074;47.540;19.072;2024-03-25T12:43:17;99762.84;;;13.48;45.24
75497;BME280;64074;47.540;19.072;2024-03-25T12:46:34;99759.72;;;12.82;44.25
75497;BME280;64074;47.540;19.072;2024-03-25T12:49:44;99769.31;;;11.76;46.91
75497;BME280;64074;47.540;19.072;2024-03-25T12:52:57;99752.16;;;11.40;48.24
75497;BME280;64074;47.540;19.072;2024-03-25T12:56:09;99763.97;;;11.45;47.83
75497;BME280;64074;47.540;19.072;2024-03-25T12:59:19;99765.59;;;11.63;45.12
75497;BME280;64074;47.540;19.072;2024-03-25T13:02:32;99758.94;;;13.28;41.99
75497;BME280;64074;47.540;19.072;2024-03-25T13:05:43;99767.44;;;15.38;38.33
75497;BME280;64074;47.540;19.072;2024-03-25T13:09:07;99769.03;;;15.88;36.90
75497;BME280;64074;47.540;19.072;2024-03-25T13:12:21;99773.69;;;14.07;40.92
75497;BME280;64074;47.540;19.072;2024-03-25T13:15:39;99771.69;;;13.45;42.57
75497;BME280;64074;47.540;19.072;2024-03-25T13:19:06;99774.28;;;13.92;42.60
75497;BME280;64074;47.540;19.072;2024-03-25T13:22:22;99769.66;;;12.60;45.66
75497;BME280;64074;47.540;19.072;2024-03-25T13:25:33;99780.38;;;11.79;48.38
75497;BME280;64074;47.540;19.072;2024-03-25T13:28:39;99775.84;;;11.66;48.60
75497;BME280;64074;47.540;19.072;2024-03-25T13:31:48;99789.69;;;13.58;43.96
75497;BME280;64074;47.540;19.072;2024-03-25T13:34:57;99772.91;;;13.09;44.41
75497;BME280;64074;47.540;19.072;2024-03-25T13:38:11;99769.69;;;12.09;46.96
75497;BME280;64074;47.540;19.072;2024-03-25T13:41:34;99756.25;;;12.38;47.13
75497;BME280;64074;47.540;19.072;2024-03-25T13:44:45;99770.97;;;12.11;46.42
75497;BME280;64074;47.540;19.072;2024-03-25T13:47:51;99770.88;;;11.59;48.75
75497;BME280;64074;47.540;19.072;2024-03-25T13:51:00;99772.25;;;11.96;48.56
75497;BME280;64074;47.540;19.072;2024-03-25T13:54:10;99780.47;;;11.65;46.89
75497;BME280;64074;47.540;19.072;2024-03-25T13:57:20;99784.25;;;11.95;46.84
75497;BME280;64074;47.540;19.072;2024-03-25T14:00:37;99769.47;;;12.83;44.06
75497;BME280;64074;47.540;19.072;2024-03-25T14:03:43;99775.03;;;15.21;38.87
75497;BME280;64074;47.540;19.072;2024-03-25T14:06:48;99776.75;;;13.08;42.98
75497;BME280;64074;47.540;19.072;2024-03-25T14:10:01;99766.34;;;12.12;43.57
75497;BME280;64074;47.540;19.072;2024-03-25T14:13:08;99761.19;;;13.26;40.00
75497;BME280;64074;47.540;19.072;2024-03-25T14:16:20;99762.84;;;12.20;41.83
75497;BME280;64074;47.540;19.072;2024-03-25T14:19:32;99770.34;;;11.97;43.66
75497;BME280;64074;47.540;19.072;2024-03-25T14:22:42;99760.09;;;12.54;42.18
75497;BME280;64074;47.540;19.072;2024-03-25T14:26:18;99755.22;;;16.37;34.45
75497;BME280;64074;47.540;19.072;2024-03-25T14:29:45;99754.63;;;17.50;32.25
75497;BME280;64074;47.540;19.072;2024-03-25T14:32:56;99754.50;;;18.33;30.59
75497;BME280;64074;47.540;19.072;2024-03-25T14:36:13;99754.53;;;17.63;31.16
75497;BME280;64074;47.540;19.072;2024-03-25T14:39:35;99742.75;;;19.17;29.57
75497;BME280;64074;47.540;19.072;2024-03-25T14:42:47;99737.53;;;20.14;28.77
75497;BME280;64074;47.540;19.072;2024-03-25T14:45:57;99742.91;;;20.70;28.19
75497;BME280;64074;47.540;19.072;2024-03-25T14:49:11;99744.66;;;20.18;27.90
75497;BME280;64074;47.540;19.072;2024-03-25T14:52:16;99741.91;;;20.18;28.33
75497;BME280;64074;47.540;19.072;2024-03-25T14:55:25;99748.16;;;20.45;28.57
75497;BME280;64074;47.540;19.072;2024-03-25T14:58:46;99744.34;;;20.94;29.63
75497;BME280;64074;47.540;19.072;2024-03-25T15:01:59;99740.19;;;21.62;29.70
75497;BME280;64074;47.540;19.072;2024-03-25T15:05:07;99742.53;;;20.72;31.54
75497;BME280;64074;47.540;19.072;2024-03-25T15:08:15;99742.28;;;21.25;30.25
75497;BME280;64074;47.540;19.072;2024-03-25T15:11:25;99736.53;;;20.59;30.90
75497;BME280;64074;47.540;19.072;2024-03-25T15:14:40;99738.31;;;17.38;35.17
75497;BME280;64074;47.540;19.072;2024-03-25T15:17:59;99745.47;;;15.59;38.92
75497;BME280;64074;47.540;19.072;2024-03-25T15:21:15;99747.38;;;13.90;42.01
75497;BME280;64074;47.540;19.072;2024-03-25T15:24:36;99747.41;;;13.81;42.97
75497;BME280;64074;47.540;19.072;2024-03-25T15:27:55;99749.69;;;13.12;45.02
75497;BME280;64074;47.540;19.072;2024-03-25T15:31:16;99752.78;;;13.02;45.41
75497;BME280;64074;47.540;19.072;2024-03-25T15:34:39;99753.19;;;12.66;45.32
75497;BME280;64074;47.540;19.072;2024-03-25T15:37:52;99750.06;;;13.02;45.26
75497;BME280;64074;47.540;19.072;2024-03-25T15:41:01;99764.56;;;12.59;45.32
75497;BME280;64074;47.540;19.072;2024-03-25T15:44:14;99764.91;;;12.23;45.82
75497;BME280;64074;47.540;19.072;2024-03-25T15:47:24;99773.53;;;12.25;45.11
75497;BME280;64074;47.540;19.072;2024-03-25T15:50:32;99758.97;;;12.38;44.51
75497;BME280;64074;47.540;19.072;2024-03-25T15:53:39;99775.94;;;12.00;46.26
75497;BME280;64074;47.540;19.072;2024-03-25T15:56:46;99784.66;;;11.23;49.40
75497;BME280;64074;47.540;19.072;2024-03-25T15:59:54;99792.75;;;10.61;51.93
75497;BME280;64074;47.540;19.072;2024-03-25T16:03:14;99792.38;;;10.76;52.41
75497;BME280;64074;47.540;19.072;2024-03-25T16:06:30;99787.44;;;10.78;52.45
75497;BME280;64074;47.540;19.072;2024-03-25T16:09:42;99782.38;;;10.63;53.13
75497;BME280;64074;47.540;19.072;2024-03-25T16:13:10;99781.41;;;10.82;52.76
75497;BME280;64074;47.540;19.072;2024-03-25T16:16:19;99771.16;;;10.78;52.93
75497;BME280;64074;47.540;19.072;2024-03-25T16:19:25;99775.34;;;10.85;52.91
75497;BME280;64074;47.540;19.072;2024-03-25T16:22:36;99776.00;;;10.90;52.14
75497;BME280;64074;47.540;19.072;2024-03-25T16:25:56;99776.09;;;10.76;52.77
75497;BME280;64074;47.540;19.072;2024-03-25T16:29:23;99776.47;;;10.61;51.88
75497;BME280;64074;47.540;19.072;2024-03-25T16:32:38;99776.44;;;10.53;52.40
75497;BME280;64074;47.540;19.072;2024-03-25T16:35:41;99774.50;;;10.75;51.63
75497;BME280;64074;47.540;19.072;2024-03-25T16:38:59;99783.28;;;10.50;51.37
75497;BME280;64074;47.540;19.072;2024-03-25T16:42:10;99780.16;;;10.65;51.44
75497;BME280;64074;47.540;19.072;2024-03-25T16:45:25;99775.75;;;10.69;50.84
75497;BME280;64074;47.540;19.072;2024-03-25T16:48:47;99773.88;;;10.78;50.89
75497;BME280;64074;47.540;19.072;2024-03-25T16:52:13;99774.41;;;10.89;50.82
75497;BME280;64074;47.540;19.072;2024-03-25T16:55:50;99780.63;;;10.90;51.07
75497;BME280;64074;47.540;19.072;2024-03-25T16:59:08;99780.94;;;10.88;51.14
75497;BME280;64074;47.540;19.072;2024-03-25T17:02:11;99787.94;;;10.81;50.99
75497;BME280;64074;47.540;19.072;2024-03-25T17:05:20;99796.16;;;10.67;51.25
75497;BME280;64074;47.540;19.072;2024-03-25T17:08:45;99795.34;;;10.66;50.79
75497;BME280;64074;47.540;19.072;2024-03-25T17:12:07;99796.69;;;10.55;50.62
75497;BME280;64074;47.540;19.072;2024-03-25T17:15:42;99803.00;;;10.42;51.25
75497;BME280;64074;47.540;19.072;2024-03-25T17:19:09;99808.78;;;10.49;51.52